Bookmark and Share
Track history (hours):
 

Syoueimaru

Last reported at 2013-Aug-17 16:13 UTC. Time now 2014-Apr-16 10:32 UTC.
Position N 35°58' E 140°58'.
Warning: this ship's position is months out of date.

Length 79 m; draft 4.1 m.

Type: Other ship. MMSI: 431500094.

NotesDate/timePositionNaut miles runAvg speedWind from/ knotsBaromVisibWave heightAir tempDewpointWater temp
2013-Aug-17 16:13N 35°58' E 140°58'1210.5
2013-Aug-17 15:03N 35°46' E 140°55'710.4
2013-Aug-17 14:25N 35°40' E 140°53'9 9.9
2013-Aug-17 13:32N 35°33' E 140°47'1010.1
2013-Aug-17 12:33N 35°25' E 140°40'3210.4
2013-Aug-17 09:27N 35°01' E 140°12'1410.3
2013-Aug-17 08:04N 34°54' E 139°58'8 9.8
2013-Aug-17 07:13N 34°53' E 139°48'710.9
2013-Aug-17 06:32N 35°00' E 139°44'9 9.1
2013-Aug-17 05:33N 35°09' E 139°46'9 8.6
2013-Aug-17 04:33N 35°18' E 139°44'8 7.9
2013-Aug-17 03:33N 35°25' E 139°44'9 9.2
2013-Aug-17 02:33N 35°30' E 139°54'9 9.1
2013-Aug-17 01:33N 35°33' E 140°04'2 2.3
2013-Aug-17 00:33N 35°34' E 140°07'0 0.0
2013-Aug-16 23:33N 35°34' E 140°07'0 0.0
2013-Aug-16 22:33N 35°34' E 140°07'3 3.1
2013-Aug-16 21:33N 35°34' E 140°03'7 6.9
2013-Aug-16 20:33N 35°28' E 139°60'0 0.0
2013-Aug-16 19:33N 35°28' E 139°60'0 0.0
2013-Aug-16 18:30N 35°28' E 139°60'0 0.0
2013-Aug-16 17:33N 35°28' E 139°60'0 0.0
2013-Aug-16 16:33N 35°28' E 139°60'0 0.0
2013-Aug-16 14:30N 35°28' E 139°60'0 0.0
2013-Aug-16 13:33N 35°28' E 139°60'0 0.0
2013-Aug-16 12:33N 35°28' E 139°60'0 0.0
2013-Aug-16 11:33N 35°28' E 139°60'0 0.0
2013-Aug-16 10:30N 35°28' E 139°60'0 0.0
2013-Aug-16 09:33N 35°28' E 139°60'0 0.0
2013-Aug-16 08:33N 35°28' E 139°60'0 0.0
2013-Aug-16 07:30N 35°28' E 139°60'0 0.0
2013-Aug-16 06:33N 35°28' E 139°60'0 0.0
2013-Aug-16 05:24N 35°28' E 139°60'0 0.0
2013-Aug-16 04:27N 35°28' E 139°60'0 0.0
2013-Aug-16 03:30N 35°28' E 139°60'0 0.0
2013-Aug-16 02:30N 35°28' E 139°60'0 0.0
2013-Aug-16 01:24N 35°28' E 139°60'0 0.0
2013-Aug-16 00:33N 35°28' E 139°60'0 0.0
2013-Aug-15 23:21N 35°28' E 139°60'0 0.0
2013-Aug-15 22:27N 35°28' E 139°60'0 0.0
2013-Aug-15 21:30N 35°28' E 139°60'0 0.0
2013-Aug-15 20:33N 35°28' E 139°60'0 0.0
2013-Aug-15 19:30N 35°28' E 139°60'0 0.0
2013-Aug-15 18:30N 35°28' E 139°60'0 0.0
2013-Aug-15 17:33N 35°28' E 139°60'0 0.0
2013-Aug-15 16:33N 35°28' E 139°60'0 0.0
2013-Aug-15 15:28N 35°28' E 139°60'0 0.0
2013-Aug-15 14:31N 35°28' E 139°60'0 0.0
2013-Aug-15 13:28N 35°28' E 139°60'0 0.0
2013-Aug-15 12:31N 35°28' E 139°60'0 0.0
2013-Aug-15 11:28N 35°28' E 139°60'0 0.0
2013-Aug-15 10:31N 35°28' E 139°60'0 0.0
2013-Aug-15 09:31N 35°28' E 139°60'0 0.0
2013-Aug-15 08:31N 35°28' E 139°60'0 0.0
2013-Aug-15 07:26N 35°28' E 139°60'0 0.0
2013-Aug-15 06:31N 35°28' E 139°60'0 0.0
2013-Aug-15 05:28N 35°28' E 139°60'0 0.0
2013-Aug-15 04:29N 35°28' E 139°60'0 0.0
2013-Aug-15 03:26N 35°28' E 139°60'0 0.0
2013-Aug-15 02:29N 35°28' E 139°60'0 0.0
2013-Aug-15 01:32N 35°28' E 139°60'0 0.0
2013-Aug-15 00:31N 35°28' E 139°60'0 0.0
2013-Aug-14 23:31N 35°28' E 139°60'0 0.0
2013-Aug-14 22:25N 35°28' E 139°60'0 0.0
2013-Aug-14 21:34N 35°28' E 139°60'0 0.0
2013-Aug-14 20:32N 35°28' E 139°60'0 0.0
2013-Aug-14 19:31N 35°28' E 139°60'0 0.0
2013-Aug-14 18:31N 35°28' E 139°60'0 0.0
2013-Aug-14 17:31N 35°28' E 139°60'0 0.0
2013-Aug-14 16:31N 35°28' E 139°60'0 0.0
2013-Aug-14 15:28N 35°28' E 139°60'0 0.0
2013-Aug-14 14:25N 35°28' E 139°60'0 0.0
2013-Aug-14 13:31N 35°28' E 139°60'0 0.0
2013-Aug-14 12:31N 35°28' E 139°60'0 0.0
2013-Aug-14 11:28N 35°28' E 139°60'0 0.0
2013-Aug-14 10:31N 35°28' E 139°60'0 0.0
2013-Aug-14 09:31N 35°28' E 139°60'0 0.0
2013-Aug-14 08:31N 35°28' E 139°60'0 0.0
2013-Aug-14 07:28N 35°28' E 139°60'0 0.0
2013-Aug-14 06:32N 35°28' E 139°60'0 0.0
2013-Aug-14 05:28N 35°28' E 139°60'0 0.0
2013-Aug-14 04:28N 35°28' E 139°60'0 0.0
2013-Aug-14 03:29N 35°28' E 139°60'0 0.0
2013-Aug-14 02:31N 35°28' E 139°60'0 0.0
2013-Aug-14 01:31N 35°28' E 139°60'0 0.0
2013-Aug-14 00:32N 35°28' E 139°60'0 0.0
2013-Aug-13 23:31N 35°28' E 139°60'0 0.0
2013-Aug-13 22:28N 35°28' E 139°60'0 0.0
2013-Aug-13 21:28N 35°28' E 139°60'0 0.0
2013-Aug-13 20:32N 35°28' E 139°60'0 0.0
2013-Aug-13 19:28N 35°28' E 139°60'0 0.0
2013-Aug-13 18:28N 35°28' E 139°60'0 0.0
2013-Aug-13 17:31N 35°28' E 139°60'0 0.0
2013-Aug-13 16:31N 35°28' E 139°60'0 0.0
2013-Aug-13 15:32N 35°28' E 139°60'0 0.0
2013-Aug-13 14:31N 35°28' E 139°60'0 0.0
2013-Aug-13 13:26N 35°28' E 139°60'0 0.0
2013-Aug-13 12:31N 35°28' E 139°60'0 0.0
2013-Aug-13 11:28N 35°28' E 139°60'0 0.0
2013-Aug-13 10:28N 35°28' E 139°60'0 0.0
2013-Aug-13 09:31N 35°28' E 139°60'0 0.0
2013-Aug-13 08:32N 35°28' E 139°60'0 0.0
2013-Aug-13 07:29N 35°28' E 139°60'0 0.0
2013-Aug-13 06:25N 35°28' E 139°60'0 0.0
2013-Aug-13 05:32N 35°28' E 139°60'0 0.0
2013-Aug-13 04:31N 35°28' E 139°60'0 0.0
2013-Aug-13 03:32N 35°28' E 139°60'0 0.0
2013-Aug-13 02:28N 35°28' E 139°60'0 0.0
2013-Aug-13 01:31N 35°28' E 139°60'0 0.0
2013-Aug-13 00:31N 35°28' E 139°60'0 0.0
2013-Aug-12 23:31N 35°28' E 139°60'0 0.0
2013-Aug-12 22:31N 35°28' E 139°60'0 0.0
2013-Aug-12 21:31N 35°28' E 139°60'0 0.0
2013-Aug-12 20:28N 35°28' E 139°60'0 0.0
2013-Aug-12 19:25N 35°28' E 139°60'0 0.0
2013-Aug-12 18:28N 35°28' E 139°60'0 0.0
2013-Aug-12 17:28N 35°28' E 139°60'0 0.0
2013-Aug-12 16:28N 35°28' E 139°60'0 0.0
2013-Aug-12 15:28N 35°28' E 139°60'0 0.0
2013-Aug-12 14:28N 35°28' E 139°60'0 0.0
2013-Aug-12 13:25N 35°28' E 139°60'0 0.0
2013-Aug-12 12:26N 35°28' E 139°60'0 0.0
2013-Aug-12 11:28N 35°28' E 139°60'0 0.0
2013-Aug-12 10:31N 35°28' E 139°60'0 0.0
2013-Aug-12 09:31N 35°28' E 139°60'0 0.0
2013-Aug-12 08:32N 35°28' E 139°60'0 0.0
2013-Aug-12 07:31N 35°28' E 139°60'0 0.0
2013-Aug-12 06:28N 35°28' E 139°60'0 0.0
2013-Aug-12 05:31N 35°28' E 139°60'0 0.0
2013-Aug-12 04:32N 35°28' E 139°60'0 0.0
2013-Aug-12 03:28N 35°28' E 139°60'0 0.0
2013-Aug-12 02:19N 35°28' E 139°60'0 0.0
2013-Aug-12 01:31N 35°28' E 139°60'0 0.0
2013-Aug-12 00:31N 35°28' E 139°60'0 0.0
2013-Aug-11 23:28N 35°28' E 139°60'6 6.9
2013-Aug-11 22:34N 35°28' E 139°52'1110.5
2013-Aug-11 21:34N 35°20' E 139°44'1010.4
2013-Aug-11 20:33N 35°09' E 139°46'  

Dump ship's entire track history

sailing weather and tide predictions

Syoueimaru — JL6084 — position and weather